RoSS Sea — WDE3122 — position and weather

sailwx.info

Track history (hours):
 
Tides and Currents Weather Stations Pressure Air Temp Water Temp Dewpoint Dewpoint Depression Visibility Wind Speed Wind Dir Waves Ship Positions

RoSS Sea

Owner: Kirby Inland Marine, LP, Houston, TX. More information available from US FCC via Universal Licensing System and Coast Guard Vessel Documentation Center.

Last reported at 2015-Mar-06 15:33 UTC. Time now 2015-Mar-06 16:09 UTC.
Position N 40°38' W 074°10'.

Length 30 m; draft 5 m.

Type: Tow > 200 m length. MMSI: 367334360.

Date/timePositionNaut miles runAvg speedWind from/ knotsBaromVisibWave heightAir tempDewpointWater temp
2015-Mar-06 15:33N 40°38' W 074°10'1 0.5
2015-Mar-06 14:33N 40°39' W 074°09'1 0.5
2015-Mar-06 13:33N 40°38' W 074°10'2 2.2
2015-Mar-06 12:33N 40°39' W 074°07'3 2.6
2015-Mar-06 11:33N 40°41' W 074°08'1 0.5
2015-Mar-06 10:27N 40°42' W 074°08'1 1.3
2015-Mar-06 09:33N 40°40' W 074°08'2 0.9
2015-Mar-06 07:19N 40°39' W 074°07'0 0.0
2015-Mar-06 06:29N 40°39' W 074°07'0 0.0
2015-Mar-06 05:34N 40°39' W 074°07'0 0.0
2015-Mar-06 04:29N 40°39' W 074°07'0 0.0
2015-Mar-06 03:32N 40°39' W 074°07'0 0.0
2015-Mar-06 01:04N 40°39' W 074°07'0 0.0
2015-Mar-06 00:22N 40°39' W 074°07'0 0.0
2015-Mar-05 23:32N 40°39' W 074°07'0 0.0
2015-Mar-05 22:21N 40°39' W 074°07'0 0.0
2015-Mar-05 21:05N 40°39' W 074°07'0 0.0
2015-Mar-05 20:31N 40°39' W 074°07'2 1.7
2015-Mar-05 19:33N 40°39' W 074°05'0 0.1
2015-Mar-05 18:33N 40°39' W 074°05'4 3.8
2015-Mar-05 17:33N 40°38' W 074°10'0 0.0
2015-Mar-05 16:33N 40°38' W 074°10'0 0.0
2015-Mar-05 15:33N 40°38' W 074°10'0 0.0
2015-Mar-05 14:33N 40°38' W 074°10'0 0.0
2015-Mar-05 13:33N 40°38' W 074°10'0 0.0
2015-Mar-05 12:33N 40°38' W 074°10'0 0.0
2015-Mar-05 11:33N 40°38' W 074°10'0 0.0
2015-Mar-05 10:33N 40°38' W 074°10'0 0.0
2015-Mar-05 09:33N 40°38' W 074°10'0 0.0
2015-Mar-05 08:33N 40°38' W 074°10'0 0.0
2015-Mar-05 07:33N 40°38' W 074°10'0 0.0
2015-Mar-05 06:33N 40°38' W 074°10'0 0.0
2015-Mar-05 05:33N 40°38' W 074°10'0 0.3
2015-Mar-05 04:32N 40°39' W 074°10'1 1.2
2015-Mar-05 03:32N 40°39' W 074°09'1 1.2
2015-Mar-05 02:33N 40°38' W 074°10'0 0.0
2015-Mar-05 01:33N 40°38' W 074°10'0 0.0
2015-Mar-05 00:33N 40°38' W 074°10'0 0.3
2015-Mar-04 23:33N 40°38' W 074°09'2 1.9
2015-Mar-04 22:33N 40°39' W 074°07'0 0.0
2015-Mar-04 21:33N 40°39' W 074°07'4 1.3
2015-Mar-04 18:22N 40°37' W 074°12'6 7.9
2015-Mar-04 17:33N 40°39' W 074°04'3 2.6
2015-Mar-04 16:33N 40°39' W 074°08'2 1.6
2015-Mar-04 15:33N 40°38' W 074°10'0 0.0
2015-Mar-04 14:33N 40°38' W 074°10'2 1.9
2015-Mar-04 13:25N 40°39' W 074°07'1 0.8
2015-Mar-04 12:33N 40°39' W 074°08'4 3.5
2015-Mar-04 11:33N 40°37' W 074°12'2 0.2
2015-Mar-04 01:33N 40°39' W 074°10'5 4.8
2015-Mar-04 00:33N 40°39' W 074°04'0 0.0
2015-Mar-03 23:33N 40°39' W 074°04'2 2.0
2015-Mar-03 22:24N 40°39' W 074°07'2 2.6
2015-Mar-03 21:33N 40°38' W 074°10'3 3.4
2015-Mar-03 20:33N 40°39' W 074°05'1 1.3
2015-Mar-03 19:33N 40°39' W 074°07'4 2.1
2015-Mar-03 17:28N 40°37' W 074°12'3 2.5
2015-Mar-03 16:28N 40°39' W 074°10'0 0.0
2015-Mar-03 15:07N 40°39' W 074°10'7 4.0
2015-Mar-03 13:14N 40°32' W 074°15'3 1.0
2015-Mar-03 10:30N 40°30' W 074°17'8 3.6
2015-Mar-03 08:16N 40°37' W 074°12'2 3.3
2015-Mar-03 07:33N 40°38' W 074°10'0 0.0
2015-Mar-03 06:33N 40°38' W 074°10'0 0.0
2015-Mar-03 05:33N 40°38' W 074°10'0 0.0
2015-Mar-03 04:33N 40°38' W 074°10'0 0.0
2015-Mar-03 03:33N 40°38' W 074°10'0 0.0
2015-Mar-03 02:33N 40°38' W 074°10'0 0.1
2015-Mar-03 01:33N 40°39' W 074°10'0 0.0
2015-Mar-03 00:33N 40°39' W 074°10'2 2.2
2015-Mar-02 23:33N 40°39' W 074°07'0 0.0
2015-Mar-02 22:33N 40°39' W 074°07'0 0.0
2015-Mar-02 21:32N 40°39' W 074°07'2 2.4
2015-Mar-02 20:33N 40°39' W 074°04'10 8.7
2015-Mar-02 19:27N 40°47' W 073°56'0 0.4
2015-Mar-02 18:33N 40°47' W 073°56'8 8.4
2015-Mar-02 17:33N 40°40' W 074°03'1 1.2
2015-Mar-02 16:33N 40°39' W 074°04'6 0.8
2015-Mar-02 08:14N 40°37' W 074°12'2 1.2
2015-Mar-02 06:23N 40°39' W 074°10'0 0.0
2015-Mar-02 05:33N 40°39' W 074°10'0 0.0
2015-Mar-02 04:29N 40°39' W 074°10'0 0.0
2015-Mar-02 03:33N 40°39' W 074°10'5 4.8
2015-Mar-02 02:33N 40°40' W 074°04'1110.8
2015-Mar-02 01:32N 40°48' W 073°54'1 1.2
2015-Mar-02 00:24N 40°47' W 073°55'5 6.0
2015-Mar-01 23:33N 40°43' W 073°59'9 8.9
2015-Mar-01 22:33N 40°38' W 074°09'1 0.3
2015-Mar-01 20:33N 40°39' W 074°10'0 0.0
2015-Mar-01 19:32N 40°39' W 074°10'0 0.0
2015-Mar-01 18:33N 40°39' W 074°10'0 0.0
2015-Mar-01 17:32N 40°39' W 074°10'0 0.0
2015-Mar-01 16:28N 40°39' W 074°10'0 0.0
2015-Mar-01 15:21N 40°39' W 074°10'0 0.0
2015-Mar-01 14:32N 40°39' W 074°10'0 0.0
2015-Mar-01 13:33N 40°39' W 074°10'0 0.0
2015-Mar-01 12:33N 40°39' W 074°10'0 0.0
2015-Mar-01 11:33N 40°39' W 074°10'0 0.0
2015-Mar-01 10:33N 40°39' W 074°10'0 0.0
2015-Mar-01 09:33N 40°39' W 074°10'0 0.0
2015-Mar-01 08:33N 40°39' W 074°10'0 0.0
2015-Mar-01 07:33N 40°39' W 074°10'0 0.0
2015-Mar-01 06:33N 40°39' W 074°10'0 0.0
2015-Mar-01 05:29N 40°39' W 074°10'0 0.1
2015-Mar-01 04:33N 40°39' W 074°10'6 5.6
2015-Mar-01 03:33N 40°39' W 074°03'0 0.1
2015-Mar-01 02:33N 40°39' W 074°02'0 0.0
2015-Mar-01 01:33N 40°39' W 074°02'1 1.2
2015-Mar-01 00:33N 40°40' W 074°02'8 8.0
2015-Feb-28 23:33N 40°47' W 073°56'45 7.4
2015-Feb-28 17:32N 41°03' W 073°00'8 8.4
2015-Feb-28 16:33N 41°05' W 072°50'8 8.0
2015-Feb-28 15:33N 41°07' W 072°40'8 7.7
2015-Feb-28 14:33N 41°09' W 072°30'8 7.7
2015-Feb-28 13:33N 41°11' W 072°20'8 8.4
2015-Feb-28 12:33N 41°14' W 072°09'9 9.2
2015-Feb-28 11:33N 41°15' W 071°57'10 9.6
2015-Feb-28 10:33N 41°17' W 071°44'9 9.3
2015-Feb-28 09:33N 41°18' W 071°32'8 7.9
2015-Feb-28 08:33N 41°23' W 071°25'8 8.2
2015-Feb-28 07:33N 41°31' W 071°20'9 8.6
2015-Feb-28 06:33N 41°40' W 071°19'9 8.5
2015-Feb-28 05:33N 41°48' W 071°23'1 1.5
2015-Feb-28 04:33N 41°49' W 071°24'0 0.0
2015-Feb-28 03:33N 41°49' W 071°24'0 0.0
2015-Feb-28 02:33N 41°49' W 071°24'0 0.0
2015-Feb-28 01:31N 41°49' W 071°24'0 0.0
2015-Feb-28 00:33N 41°49' W 071°24'0 0.0
2015-Feb-27 23:33N 41°49' W 071°24'0 0.0
2015-Feb-27 22:33N 41°49' W 071°24'0 0.0
2015-Feb-27 21:33N 41°49' W 071°24'0 0.0
2015-Feb-27 20:32N 41°49' W 071°24'0 0.0
2015-Feb-27 19:29N 41°49' W 071°24'0 0.0
2015-Feb-27 18:33N 41°49' W 071°24'0 0.0
2015-Feb-27 17:33N 41°49' W 071°24'0 0.0
2015-Feb-27 16:33N 41°49' W 071°24'0 0.0
2015-Feb-27 15:33N 41°49' W 071°24'4 3.6
2015-Feb-27 14:33N 41°45' W 071°22'7 7.3
2015-Feb-27 13:33N 41°39' W 071°18'6 5.8
2015-Feb-27 12:33N 41°33' W 071°19'4 4.0
2015-Feb-27 11:33N 41°29' W 071°21'6 5.6
2015-Feb-27 10:33N 41°24' W 071°24'5 5.1
2015-Feb-27 09:33N 41°19' W 071°27'5 4.9
2015-Feb-27 08:33N 41°18' W 071°33'5 5.1
2015-Feb-27 07:33N 41°17' W 071°40'5 5.2
2015-Feb-27 06:33N 41°16' W 071°47'5 5.0
2015-Feb-27 05:33N 41°15' W 071°53'6 5.8
2015-Feb-27 04:33N 41°14' W 072°01'8 7.6
2015-Feb-27 03:33N 41°14' W 072°11'8 8.0
2015-Feb-27 02:33N 41°11' W 072°21'8 7.8
2015-Feb-27 01:33N 41°09' W 072°31'8 7.9
2015-Feb-27 00:33N 41°07' W 072°41'8 8.0
2015-Feb-26 23:33N 41°05' W 072°52'29 7.2
2015-Feb-26 19:32N 40°58' W 073°29'14 6.4
2015-Feb-26 17:20N 40°52' W 073°45'4 4.7
2015-Feb-26 16:25N 40°48' W 073°49'6 6.5
2015-Feb-26 15:26N 40°46' W 073°57'5 5.8
2015-Feb-26 14:33N 40°42' W 074°00'3 2.5
2015-Feb-26 13:29N 40°40' W 074°02'0 0.0
2015-Feb-26 12:28N 40°40' W 074°02'0 0.0
2015-Feb-26 11:27N 40°40' W 074°02'0 0.1
2015-Feb-26 10:33N 40°40' W 074°02'6 4.7
2015-Feb-26 09:21N 40°39' W 074°10'10 2.4
2015-Feb-26 05:09N 40°31' W 074°18'0 0.0
2015-Feb-26 04:15N 40°31' W 074°18'0 0.0
2015-Feb-26 03:32N 40°31' W 074°18'0 0.0
2015-Feb-26 02:28N 40°31' W 074°18'0 0.0
2015-Feb-25 22:10N 40°31' W 074°18'0 0.0
2015-Feb-25 21:04N 40°31' W 074°18'0 0.0
2015-Feb-25 17:29N 40°31' W 074°18'0 0.0
2015-Feb-25 13:33N 40°31' W 074°18'0 0.0
2015-Feb-25 10:29N 40°31' W 074°18'2 0.5
2015-Feb-25 06:33N 40°30' W 074°15'0 0.1
2015-Feb-25 05:14N 40°30' W 074°15'0 0.0
2015-Feb-25 04:26N 40°30' W 074°15'0 0.0
2015-Feb-25 03:33N 40°30' W 074°15'0 0.0
2015-Feb-25 02:33N 40°30' W 074°15'0 0.0
2015-Feb-25 01:33N 40°30' W 074°15'0 0.1
2015-Feb-25 00:31N 40°30' W 074°15'0 0.0
2015-Feb-24 23:30N 40°30' W 074°15'7 6.3
2015-Feb-24 22:26N 40°36' W 074°12'5 5.3
2015-Feb-24 21:33N 40°39' W 074°07'2 2.3
2015-Feb-24 20:33N 40°39' W 074°10'0 0.2
2015-Feb-24 18:33N 40°38' W 074°09'2 2.1
2015-Feb-24 17:33N 40°39' W 074°07'1 1.1
2015-Feb-24 16:33N 40°39' W 074°08'  
Track history (hours):
 
Tides and Currents Weather Stations Pressure Air Temp Water Temp Dewpoint Dewpoint Depression Visibility Wind Speed Wind Dir Waves Ship Positions

RoSS Sea

Owner: Kirby Inland Marine, LP, Houston, TX. More information available from US FCC via Universal Licensing System and Coast Guard Vessel Documentation Center.

Last reported at 2015-Mar-06 15:33 UTC. Time now 2015-Mar-06 16:09 UTC.
Position N 40°38' W 074°10'.

Length 30 m; draft 5 m.

Type: Tow > 200 m length. MMSI: 367334360.

Date/timePositionNaut miles runAvg speedWind from/ knotsBaromVisibWave heightAir tempDewpointWater temp
2015-Mar-06 15:33N 40°38' W 074°10'1 0.5
2015-Mar-06 14:33N 40°39' W 074°09'1 0.5
2015-Mar-06 13:33N 40°38' W 074°10'2 2.2
2015-Mar-06 12:33N 40°39' W 074°07'3 2.6
2015-Mar-06 11:33N 40°41' W 074°08'1 0.5
2015-Mar-06 10:27N 40°42' W 074°08'1 1.3
2015-Mar-06 09:33N 40°40' W 074°08'2 0.9
2015-Mar-06 07:19N 40°39' W 074°07'0 0.0
2015-Mar-06 06:29N 40°39' W 074°07'0 0.0
2015-Mar-06 05:34N 40°39' W 074°07'0 0.0
2015-Mar-06 04:29N 40°39' W 074°07'0 0.0
2015-Mar-06 03:32N 40°39' W 074°07'0 0.0
2015-Mar-06 01:04N 40°39' W 074°07'0 0.0
2015-Mar-06 00:22N 40°39' W 074°07'0 0.0
2015-Mar-05 23:32N 40°39' W 074°07'0 0.0
2015-Mar-05 22:21N 40°39' W 074°07'0 0.0
2015-Mar-05 21:05N 40°39' W 074°07'0 0.0
2015-Mar-05 20:31N 40°39' W 074°07'2 1.7
2015-Mar-05 19:33N 40°39' W 074°05'0 0.1
2015-Mar-05 18:33N 40°39' W 074°05'4 3.8
2015-Mar-05 17:33N 40°38' W 074°10'0 0.0
2015-Mar-05 16:33N 40°38' W 074°10'0 0.0
2015-Mar-05 15:33N 40°38' W 074°10'0 0.0
2015-Mar-05 14:33N 40°38' W 074°10'0 0.0
2015-Mar-05 13:33N 40°38' W 074°10'0 0.0
2015-Mar-05 12:33N 40°38' W 074°10'0 0.0
2015-Mar-05 11:33N 40°38' W 074°10'0 0.0
2015-Mar-05 10:33N 40°38' W 074°10'0 0.0
2015-Mar-05 09:33N 40°38' W 074°10'0 0.0
2015-Mar-05 08:33N 40°38' W 074°10'0 0.0
2015-Mar-05 07:33N 40°38' W 074°10'0 0.0
2015-Mar-05 06:33N 40°38' W 074°10'0 0.0
2015-Mar-05 05:33N 40°38' W 074°10'0 0.3
2015-Mar-05 04:32N 40°39' W 074°10'1 1.2
2015-Mar-05 03:32N 40°39' W 074°09'1 1.2
2015-Mar-05 02:33N 40°38' W 074°10'0 0.0
2015-Mar-05 01:33N 40°38' W 074°10'0 0.0
2015-Mar-05 00:33N 40°38' W 074°10'0 0.3
2015-Mar-04 23:33N 40°38' W 074°09'2 1.9
2015-Mar-04 22:33N 40°39' W 074°07'0 0.0
2015-Mar-04 21:33N 40°39' W 074°07'4 1.3
2015-Mar-04 18:22N 40°37' W 074°12'6 7.9
2015-Mar-04 17:33N 40°39' W 074°04'3 2.6
2015-Mar-04 16:33N 40°39' W 074°08'2 1.6
2015-Mar-04 15:33N 40°38' W 074°10'0 0.0
2015-Mar-04 14:33N 40°38' W 074°10'2 1.9
2015-Mar-04 13:25N 40°39' W 074°07'1 0.8
2015-Mar-04 12:33N 40°39' W 074°08'4 3.5
2015-Mar-04 11:33N 40°37' W 074°12'2 0.2
2015-Mar-04 01:33N 40°39' W 074°10'5 4.8
2015-Mar-04 00:33N 40°39' W 074°04'0 0.0
2015-Mar-03 23:33N 40°39' W 074°04'2 2.0
2015-Mar-03 22:24N 40°39' W 074°07'2 2.6
2015-Mar-03 21:33N 40°38' W 074°10'3 3.4
2015-Mar-03 20:33N 40°39' W 074°05'1 1.3
2015-Mar-03 19:33N 40°39' W 074°07'4 2.1
2015-Mar-03 17:28N 40°37' W 074°12'3 2.5
2015-Mar-03 16:28N 40°39' W 074°10'0 0.0
2015-Mar-03 15:07N 40°39' W 074°10'7 4.0
2015-Mar-03 13:14N 40°32' W 074°15'3 1.0
2015-Mar-03 10:30N 40°30' W 074°17'8 3.6
2015-Mar-03 08:16N 40°37' W 074°12'2 3.3
2015-Mar-03 07:33N 40°38' W 074°10'0 0.0
2015-Mar-03 06:33N 40°38' W 074°10'0 0.0
2015-Mar-03 05:33N 40°38' W 074°10'0 0.0
2015-Mar-03 04:33N 40°38' W 074°10'0 0.0
2015-Mar-03 03:33N 40°38' W 074°10'0 0.0
2015-Mar-03 02:33N 40°38' W 074°10'0 0.1
2015-Mar-03 01:33N 40°39' W 074°10'0 0.0
2015-Mar-03 00:33N 40°39' W 074°10'2 2.2
2015-Mar-02 23:33N 40°39' W 074°07'0 0.0
2015-Mar-02 22:33N 40°39' W 074°07'0 0.0
2015-Mar-02 21:32N 40°39' W 074°07'2 2.4
2015-Mar-02 20:33N 40°39' W 074°04'10 8.7
2015-Mar-02 19:27N 40°47' W 073°56'0 0.4
2015-Mar-02 18:33N 40°47' W 073°56'8 8.4
2015-Mar-02 17:33N 40°40' W 074°03'1 1.2
2015-Mar-02 16:33N 40°39' W 074°04'6 0.8
2015-Mar-02 08:14N 40°37' W 074°12'2 1.2
2015-Mar-02 06:23N 40°39' W 074°10'0 0.0
2015-Mar-02 05:33N 40°39' W 074°10'0 0.0
2015-Mar-02 04:29N 40°39' W 074°10'0 0.0
2015-Mar-02 03:33N 40°39' W 074°10'5 4.8
2015-Mar-02 02:33N 40°40' W 074°04'1110.8
2015-Mar-02 01:32N 40°48' W 073°54'1 1.2
2015-Mar-02 00:24N 40°47' W 073°55'5 6.0
2015-Mar-01 23:33N 40°43' W 073°59'9 8.9
2015-Mar-01 22:33N 40°38' W 074°09'1 0.3
2015-Mar-01 20:33N 40°39' W 074°10'0 0.0
2015-Mar-01 19:32N 40°39' W 074°10'0 0.0
2015-Mar-01 18:33N 40°39' W 074°10'0 0.0
2015-Mar-01 17:32N 40°39' W 074°10'0 0.0
2015-Mar-01 16:28N 40°39' W 074°10'0 0.0
2015-Mar-01 15:21N 40°39' W 074°10'0 0.0
2015-Mar-01 14:32N 40°39' W 074°10'0 0.0
2015-Mar-01 13:33N 40°39' W 074°10'0 0.0
2015-Mar-01 12:33N 40°39' W 074°10'0 0.0
2015-Mar-01 11:33N 40°39' W 074°10'0 0.0
2015-Mar-01 10:33N 40°39' W 074°10'0 0.0
2015-Mar-01 09:33N 40°39' W 074°10'0 0.0
2015-Mar-01 08:33N 40°39' W 074°10'0 0.0
2015-Mar-01 07:33N 40°39' W 074°10'0 0.0
2015-Mar-01 06:33N 40°39' W 074°10'0 0.0
2015-Mar-01 05:29N 40°39' W 074°10'0 0.1
2015-Mar-01 04:33N 40°39' W 074°10'6 5.6
2015-Mar-01 03:33N 40°39' W 074°03'0 0.1
2015-Mar-01 02:33N 40°39' W 074°02'0 0.0
2015-Mar-01 01:33N 40°39' W 074°02'1 1.2
2015-Mar-01 00:33N 40°40' W 074°02'8 8.0
2015-Feb-28 23:33N 40°47' W 073°56'45 7.4
2015-Feb-28 17:32N 41°03' W 073°00'8 8.4
2015-Feb-28 16:33N 41°05' W 072°50'8 8.0
2015-Feb-28 15:33N 41°07' W 072°40'8 7.7
2015-Feb-28 14:33N 41°09' W 072°30'8 7.7
2015-Feb-28 13:33N 41°11' W 072°20'8 8.4
2015-Feb-28 12:33N 41°14' W 072°09'9 9.2
2015-Feb-28 11:33N 41°15' W 071°57'10 9.6
2015-Feb-28 10:33N 41°17' W 071°44'9 9.3
2015-Feb-28 09:33N 41°18' W 071°32'8 7.9
2015-Feb-28 08:33N 41°23' W 071°25'8 8.2
2015-Feb-28 07:33N 41°31' W 071°20'9 8.6
2015-Feb-28 06:33N 41°40' W 071°19'9 8.5
2015-Feb-28 05:33N 41°48' W 071°23'1 1.5
2015-Feb-28 04:33N 41°49' W 071°24'0 0.0
2015-Feb-28 03:33N 41°49' W 071°24'0 0.0
2015-Feb-28 02:33N 41°49' W 071°24'0 0.0
2015-Feb-28 01:31N 41°49' W 071°24'0 0.0
2015-Feb-28 00:33N 41°49' W 071°24'0 0.0
2015-Feb-27 23:33N 41°49' W 071°24'0 0.0
2015-Feb-27 22:33N 41°49' W 071°24'0 0.0
2015-Feb-27 21:33N 41°49' W 071°24'0 0.0
2015-Feb-27 20:32N 41°49' W 071°24'0 0.0
2015-Feb-27 19:29N 41°49' W 071°24'0 0.0
2015-Feb-27 18:33N 41°49' W 071°24'0 0.0
2015-Feb-27 17:33N 41°49' W 071°24'0 0.0
2015-Feb-27 16:33N 41°49' W 071°24'0 0.0
2015-Feb-27 15:33N 41°49' W 071°24'4 3.6
2015-Feb-27 14:33N 41°45' W 071°22'7 7.3
2015-Feb-27 13:33N 41°39' W 071°18'6 5.8
2015-Feb-27 12:33N 41°33' W 071°19'4 4.0
2015-Feb-27 11:33N 41°29' W 071°21'6 5.6
2015-Feb-27 10:33N 41°24' W 071°24'5 5.1
2015-Feb-27 09:33N 41°19' W 071°27'5 4.9
2015-Feb-27 08:33N 41°18' W 071°33'5 5.1
2015-Feb-27 07:33N 41°17' W 071°40'5 5.2
2015-Feb-27 06:33N 41°16' W 071°47'5 5.0
2015-Feb-27 05:33N 41°15' W 071°53'6 5.8
2015-Feb-27 04:33N 41°14' W 072°01'8 7.6
2015-Feb-27 03:33N 41°14' W 072°11'8 8.0
2015-Feb-27 02:33N 41°11' W 072°21'8 7.8
2015-Feb-27 01:33N 41°09' W 072°31'8 7.9
2015-Feb-27 00:33N 41°07' W 072°41'8 8.0
2015-Feb-26 23:33N 41°05' W 072°52'29 7.2
2015-Feb-26 19:32N 40°58' W 073°29'14 6.4
2015-Feb-26 17:20N 40°52' W 073°45'4 4.7
2015-Feb-26 16:25N 40°48' W 073°49'6 6.5
2015-Feb-26 15:26N 40°46' W 073°57'5 5.8
2015-Feb-26 14:33N 40°42' W 074°00'3 2.5
2015-Feb-26 13:29N 40°40' W 074°02'0 0.0
2015-Feb-26 12:28N 40°40' W 074°02'0 0.0
2015-Feb-26 11:27N 40°40' W 074°02'0 0.1
2015-Feb-26 10:33N 40°40' W 074°02'6 4.7
2015-Feb-26 09:21N 40°39' W 074°10'10 2.4
2015-Feb-26 05:09N 40°31' W 074°18'0 0.0
2015-Feb-26 04:15N 40°31' W 074°18'0 0.0
2015-Feb-26 03:32N 40°31' W 074°18'0 0.0
2015-Feb-26 02:28N 40°31' W 074°18'0 0.0
2015-Feb-25 22:10N 40°31' W 074°18'0 0.0
2015-Feb-25 21:04N 40°31' W 074°18'0 0.0
2015-Feb-25 17:29N 40°31' W 074°18'0 0.0
2015-Feb-25 13:33N 40°31' W 074°18'0 0.0
2015-Feb-25 10:29N 40°31' W 074°18'2 0.5
2015-Feb-25 06:33N 40°30' W 074°15'0 0.1
2015-Feb-25 05:14N 40°30' W 074°15'0 0.0
2015-Feb-25 04:26N 40°30' W 074°15'0 0.0
2015-Feb-25 03:33N 40°30' W 074°15'0 0.0
2015-Feb-25 02:33N 40°30' W 074°15'0 0.0
2015-Feb-25 01:33N 40°30' W 074°15'0 0.1
2015-Feb-25 00:31N 40°30' W 074°15'0 0.0
2015-Feb-24 23:30N 40°30' W 074°15'7 6.3
2015-Feb-24 22:26N 40°36' W 074°12'5 5.3
2015-Feb-24 21:33N 40°39' W 074°07'2 2.3
2015-Feb-24 20:33N 40°39' W 074°10'0 0.2
2015-Feb-24 18:33N 40°38' W 074°09'2 2.1
2015-Feb-24 17:33N 40°39' W 074°07'1 1.1
2015-Feb-24 16:33N 40°39' W 074°08'  

Dump ship's entire track history